createdAt,value
2019-03-30T00:02:10.987Z,97002.12
2019-03-30T00:04:49.579Z,97001.20
2019-03-30T00:07:44.746Z,97003.59
2019-03-30T00:10:29.380Z,97006.23
2019-03-30T00:13:03.037Z,97010.79
2019-03-30T00:15:34.931Z,96997.77
2019-03-30T00:18:06.569Z,96998.27
2019-03-30T00:20:38.014Z,96996.13
2019-03-30T00:23:10.069Z,96995.17
2019-03-30T00:25:41.932Z,96994.12
2019-03-30T00:28:13.403Z,96993.31
2019-03-30T00:30:45.123Z,96993.19
2019-03-30T00:33:17.001Z,96993.77
2019-03-30T00:35:48.709Z,96983.63
2019-03-30T00:38:20.076Z,96979.89
2019-03-30T00:40:51.526Z,96977.30
2019-03-30T00:43:23.041Z,96972.70
2019-03-30T00:45:54.536Z,96976.53
2019-03-30T00:48:26.583Z,96978.39
2019-03-30T00:50:58.181Z,96972.84
2019-03-30T00:53:29.602Z,96971.70
2019-03-30T00:56:01.003Z,96970.39
2019-03-30T00:58:32.348Z,96964.88
2019-03-30T01:01:04.506Z,96966.38
2019-03-30T01:03:35.828Z,96969.47
2019-03-30T01:06:07.248Z,96957.32
2019-03-30T01:08:39.351Z,96963.38
2019-03-30T01:11:10.711Z,96959.55
2019-03-30T01:13:42.122Z,96962.87
2019-03-30T01:16:13.494Z,96960.55
2019-03-30T01:18:44.872Z,96956.81
2019-03-30T01:21:17.017Z,96963.19
2019-03-30T01:23:48.737Z,96957.77
2019-03-30T01:26:20.319Z,96957.59
2019-03-30T01:28:54.804Z,96962.50
2019-03-30T01:31:26.357Z,96965.93
2019-03-30T01:33:57.748Z,96959.46
2019-03-30T01:36:30.571Z,96963.10
2019-03-30T01:39:04.790Z,96957.22
2019-03-30T01:41:36.083Z,96949.35
2019-03-30T01:44:07.811Z,96955.18
2019-03-30T01:46:42.189Z,96953.31
2019-03-30T01:49:13.570Z,96955.27
2019-03-30T01:51:45.415Z,96953.81
2019-03-30T01:54:16.745Z,96950.41
2019-03-30T01:56:48.163Z,96949.80
2019-03-30T01:59:19.890Z,96946.52
2019-03-30T02:01:51.265Z,96941.38
2019-03-30T02:04:23.284Z,96939.11
2019-03-30T02:06:54.619Z,96939.11
2019-03-30T02:09:26.031Z,96940.69
2019-03-30T02:11:57.789Z,96932.05
2019-03-30T02:14:32.450Z,96936.28
2019-03-30T02:17:03.842Z,96937.60
2019-03-30T02:19:35.730Z,96934.02
2019-03-30T02:22:07.065Z,96929.00
2019-03-30T02:24:38.480Z,96928.36
2019-03-30T02:27:10.348Z,96926.53
2019-03-30T02:29:41.716Z,96924.63
2019-03-30T02:32:13.163Z,96924.63
2019-03-30T02:34:44.543Z,96921.39
2019-03-30T02:37:19.204Z,96920.19
2019-03-30T02:39:50.721Z,96921.81
2019-03-30T02:42:22.685Z,96916.08
2019-03-30T02:44:54.322Z,96914.45
2019-03-30T02:47:25.789Z,96913.77
2019-03-30T02:49:57.688Z,96909.95
2019-03-30T02:52:29.134Z,96908.30
2019-03-30T02:55:00.711Z,96909.67
2019-03-30T02:57:32.880Z,96905.89
2019-03-30T03:00:05.915Z,96909.72
2019-03-30T03:02:37.599Z,96919.02
2019-03-30T03:05:09.584Z,96915.06
2019-03-30T03:07:41.358Z,96913.42
2019-03-30T03:10:14.029Z,96913.92
2019-03-30T03:12:45.959Z,96913.79
2019-03-30T03:15:17.368Z,96914.50
2019-03-30T03:17:48.768Z,96908.41
2019-03-30T03:20:20.253Z,96906.27
2019-03-30T03:22:51.755Z,96908.70
2019-03-30T03:25:23.183Z,96902.42
2019-03-30T03:27:55.067Z,96906.13
2019-03-30T03:30:26.475Z,96909.31
2019-03-30T03:32:58.037Z,96904.17
2019-03-30T03:35:30.028Z,96903.85
2019-03-30T03:38:01.387Z,96897.88
2019-03-30T03:40:32.874Z,96905.40
2019-03-30T03:43:04.306Z,96896.48
2019-03-30T03:45:36.832Z,96895.03
2019-03-30T03:48:08.773Z,96892.89
2019-03-30T03:50:45.019Z,96891.22
2019-03-30T03:53:16.972Z,96891.22
2019-03-30T03:55:48.773Z,96889.26
2019-03-30T03:58:20.186Z,96889.94
2019-03-30T04:00:51.670Z,96882.67
2019-03-30T04:03:23.477Z,96884.48
2019-03-30T04:05:56.381Z,96881.59
2019-03-30T04:08:27.782Z,96877.04
2019-03-30T04:10:59.239Z,96883.73
2019-03-30T04:13:33.834Z,96874.72
2019-03-30T04:16:06.531Z,96876.11
2019-03-30T04:18:39.380Z,96873.12
2019-03-30T04:21:12.287Z,96879.15
2019-03-30T04:23:43.769Z,96871.92
2019-03-30T04:26:15.203Z,96872.28
2019-03-30T04:28:46.684Z,96872.17
2019-03-30T04:31:18.190Z,96875.80
2019-03-30T04:33:52.096Z,96874.27
2019-03-30T04:36:25.121Z,96873.03
2019-03-30T04:38:56.575Z,96874.84
2019-03-30T04:41:28.443Z,96870.85
2019-03-30T04:43:59.877Z,96865.58
2019-03-30T04:46:31.529Z,96881.50
2019-03-30T04:49:02.986Z,96873.09
2019-03-30T04:51:34.859Z,96869.47
2019-03-30T04:54:06.326Z,96876.02
2019-03-30T04:56:37.880Z,96868.53
2019-03-30T04:59:09.393Z,96872.38
2019-03-30T05:01:41.231Z,96870.60
2019-03-30T05:04:12.655Z,96869.47
2019-03-30T05:06:44.722Z,96870.46
2019-03-30T05:09:16.021Z,96871.42
2019-03-30T05:11:47.501Z,96865.83
2019-03-30T05:14:18.924Z,96867.64
2019-03-30T05:16:50.415Z,96872.42
2019-03-30T05:19:21.793Z,96872.78
2019-03-30T05:21:53.663Z,96874.91
2019-03-30T05:24:27.212Z,96870.74
2019-03-30T05:26:58.155Z,96868.35
2019-03-30T05:29:29.547Z,96869.23
2019-03-30T05:32:01.313Z,96875.61
2019-03-30T05:34:32.684Z,96870.08
2019-03-30T05:37:04.316Z,96871.98
2019-03-30T05:39:39.263Z,96877.27
2019-03-30T05:42:15.699Z,96874.19
2019-03-30T05:44:47.037Z,96867.97
2019-03-30T05:47:18.743Z,96869.16
2019-03-30T05:49:51.033Z,96866.71
2019-03-30T05:52:29.575Z,96870.43
2019-03-30T05:55:08.610Z,96868.53
2019-03-30T05:57:41.647Z,96867.08
2019-03-30T06:00:19.044Z,96867.25
2019-03-30T06:02:50.548Z,96865.00
2019-03-30T06:05:22.784Z,96860.81
2019-03-30T06:07:54.318Z,96855.83
2019-03-30T06:10:25.726Z,96858.13
2019-03-30T06:12:57.995Z,96858.79
2019-03-30T06:15:29.708Z,96852.91
2019-03-30T06:18:03.509Z,96853.96
2019-03-30T06:20:39.607Z,96846.23
2019-03-30T06:23:15.261Z,96839.70
2019-03-30T06:25:58.644Z,96845.76
2019-03-30T06:28:30.049Z,96838.81
2019-03-30T06:31:02.311Z,96839.63
2019-03-30T06:33:35.593Z,96836.09
2019-03-30T06:36:06.985Z,96836.52
2019-03-30T06:38:39.177Z,96839.04
2019-03-30T06:41:11.226Z,96830.75
2019-03-30T06:43:42.649Z,96826.73
2019-03-30T06:46:17.276Z,96822.04
2019-03-30T06:48:48.857Z,96827.36
2019-03-30T06:51:20.843Z,96821.81
2019-03-30T06:53:52.451Z,96818.56
2019-03-30T06:56:23.914Z,96820.69
2019-03-30T06:59:52.172Z,96810.62
2019-03-30T07:02:54.029Z,96818.60
2019-03-30T07:05:42.547Z,96812.41
2019-03-30T07:08:16.896Z,96809.67
2019-03-30T07:10:48.274Z,96806.25
2019-03-30T07:13:22.326Z,96801.53
2019-03-30T07:15:53.727Z,96804.39
2019-03-30T07:18:25.382Z,96804.41
2019-03-30T07:20:57.074Z,96808.16
2019-03-30T07:23:28.674Z,96806.11
2019-03-30T07:26:01.433Z,96809.55
2019-03-30T07:28:33.083Z,96808.80
2019-03-30T07:31:05.416Z,96804.65
2019-03-30T07:33:37.083Z,96813.33
2019-03-30T07:36:08.789Z,96805.66
2019-03-30T07:38:41.079Z,96801.72
2019-03-30T07:41:12.414Z,96802.47
2019-03-30T07:43:43.881Z,96801.56
2019-03-30T07:46:15.762Z,96799.02
2019-03-30T07:48:47.647Z,96797.05
2019-03-30T07:51:20.633Z,96795.81
2019-03-30T07:53:52.274Z,96790.88
2019-03-30T07:56:24.238Z,96794.66
2019-03-30T07:58:55.658Z,96797.67
2019-03-30T08:01:27.156Z,96793.78
2019-03-30T08:04:07.965Z,96796.99
2019-03-30T08:06:39.387Z,96804.50
2019-03-30T08:09:13.321Z,96803.92
2019-03-30T08:11:49.957Z,96796.21
2019-03-30T08:14:26.052Z,96803.53
2019-03-30T08:16:57.499Z,96800.81
2019-03-30T08:19:29.065Z,96799.47
2019-03-30T08:22:03.070Z,96797.80
2019-03-30T08:24:35.626Z,96805.30
2019-03-30T08:27:07.010Z,96801.73
2019-03-30T08:29:39.748Z,96804.66
2019-03-30T08:32:14.635Z,96804.73
2019-03-30T08:34:50.458Z,96804.58
2019-03-30T08:37:26.922Z,96800.13
2019-03-30T08:39:58.574Z,96799.11
2019-03-30T08:42:29.911Z,96797.90
2019-03-30T08:45:01.407Z,96793.50
2019-03-30T08:47:41.555Z,96796.78
2019-03-30T08:50:19.600Z,96792.27
2019-03-30T08:52:50.968Z,96789.80
2019-03-30T08:55:23.834Z,96795.97
2019-03-30T08:57:55.914Z,96793.40
2019-03-30T09:00:41.711Z,96791.60
2019-03-30T09:03:14.703Z,96790.67
2019-03-30T09:05:50.987Z,96790.02
2019-03-30T09:08:34.663Z,96793.61
2019-03-30T09:11:08.252Z,96794.23
2019-03-30T09:13:41.431Z,96790.20
2019-03-30T09:16:12.830Z,96787.63
2019-03-30T09:18:46.438Z,96788.00
2019-03-30T09:21:20.781Z,96785.09
2019-03-30T09:23:53.351Z,96784.64
2019-03-30T09:26:26.561Z,96780.64
2019-03-30T09:28:57.953Z,96784.52
2019-03-30T09:31:32.426Z,96782.64
2019-03-30T09:34:52.917Z,96769.91
2019-03-30T09:37:28.652Z,96764.05
2019-03-30T09:40:04.938Z,96767.13
2019-03-30T09:42:39.050Z,96764.16
2019-03-30T09:45:10.978Z,96749.09
2019-03-30T09:47:43.573Z,96751.48
2019-03-30T09:50:15.938Z,96757.91
2019-03-30T09:52:48.487Z,96754.31
2019-03-30T09:55:22.480Z,96752.16
2019-03-30T09:58:30.928Z,96748.50
2019-03-30T10:01:25.004Z,96741.97
2019-03-30T10:03:59.007Z,96735.28
2019-03-30T10:06:34.309Z,96728.95
2019-03-30T10:09:08.500Z,96734.75
2019-03-30T10:12:14.714Z,96733.06
2019-03-30T10:15:07.080Z,96730.61
2019-03-30T10:17:42.261Z,96731.98
2019-03-30T10:20:18.591Z,96729.73
2019-03-30T10:22:52.940Z,96728.92
2019-03-30T10:25:25.470Z,96723.91
2019-03-30T10:27:59.816Z,96720.22
2019-03-30T10:30:31.196Z,96716.84
2019-03-30T10:33:04.388Z,96721.53
2019-03-30T10:35:41.611Z,96715.53
2019-03-30T10:38:13.258Z,96721.81
2019-03-30T10:40:44.904Z,96714.97
2019-03-30T10:43:22.052Z,96710.14
2019-03-30T10:46:03.721Z,96694.30
2019-03-30T10:48:35.555Z,96703.94
2019-03-30T10:51:13.047Z,96707.94
2019-03-30T10:53:44.437Z,96692.97
2019-03-30T10:56:16.051Z,96696.11
2019-03-30T10:58:51.955Z,96691.23
2019-03-30T11:01:23.231Z,96693.25
2019-03-30T11:03:57.220Z,96692.20
2019-03-30T11:06:38.942Z,96692.67
2019-03-30T11:09:10.645Z,96686.34
2019-03-30T11:11:53.110Z,96679.05
2019-03-30T11:14:26.123Z,96686.23
2019-03-30T11:17:09.988Z,96686.75
2019-03-30T11:19:50.771Z,96686.30
2019-03-30T11:22:19.437Z,96677.47
2019-03-30T11:25:06.519Z,96675.39
2019-03-30T11:27:27.011Z,96676.29
2019-03-30T11:29:58.855Z,96670.77
2019-03-30T11:32:31.736Z,96659.76
2019-03-30T11:35:03.274Z,96665.25
2019-03-30T11:37:34.673Z,96657.91
2019-03-30T11:40:07.199Z,96655.47
2019-03-30T11:42:42.037Z,96652.34
2019-03-30T11:45:20.004Z,96649.95
2019-03-30T11:47:53.034Z,96646.69
2019-03-30T11:50:26.000Z,96640.80
2019-03-30T11:52:57.449Z,96637.39
2019-03-30T11:55:33.557Z,96638.31
2019-03-30T11:58:04.934Z,96632.56
2019-03-30T12:00:39.295Z,96630.67
2019-03-30T12:03:16.376Z,96629.16
2019-03-30T12:05:52.365Z,96624.91
2019-03-30T12:08:23.753Z,96617.55
2019-03-30T12:10:55.528Z,96612.13
2019-03-30T12:13:37.857Z,96603.04
2019-03-30T12:16:23.805Z,96607.63
2019-03-30T12:19:01.838Z,96612.59
2019-03-30T12:21:33.136Z,96597.12
2019-03-30T12:24:08.222Z,96588.17
2019-03-30T12:26:40.026Z,96596.63
2019-03-30T12:29:12.672Z,96597.36
2019-03-30T12:31:43.970Z,96592.80
2019-03-30T12:34:15.423Z,96594.69
2019-03-30T12:36:48.619Z,96589.76
2019-03-30T12:39:32.039Z,96585.31
2019-03-30T12:42:07.290Z,96584.09
2019-03-30T12:44:39.543Z,96577.48
2019-03-30T12:47:25.978Z,96584.77
2019-03-30T12:50:00.644Z,96579.75
2019-03-30T12:52:32.531Z,96570.85
2019-03-30T12:55:04.535Z,96562.92
2019-03-30T12:57:46.350Z,96564.77
2019-03-30T13:00:19.654Z,96559.94
2019-03-30T13:02:51.036Z,96553.09
2019-03-30T13:05:22.888Z,96557.88
2019-03-30T13:07:55.575Z,96551.19
2019-03-30T13:10:26.905Z,96555.48
2019-03-30T13:12:58.394Z,96548.28
2019-03-30T13:15:32.295Z,96543.91
2019-03-30T13:18:11.061Z,96544.87
2019-03-30T13:20:44.360Z,96541.02
2019-03-30T13:23:15.735Z,96536.43
2019-03-30T13:25:47.033Z,96536.13
2019-03-30T13:28:20.963Z,96531.16
2019-03-30T13:30:53.422Z,96524.13
2019-03-30T13:33:25.451Z,96522.00
2019-03-30T13:36:15.947Z,96517.84
2019-03-30T13:38:49.865Z,96516.56
2019-03-30T13:41:24.182Z,96514.45
2019-03-30T13:43:57.486Z,96516.30
2019-03-30T13:47:00.477Z,96510.79
2019-03-30T13:49:35.322Z,96509.18
2019-03-30T13:52:10.911Z,96511.90
2019-03-30T13:54:43.927Z,96506.05
2019-03-30T13:57:15.245Z,96497.85
2019-03-30T13:59:50.996Z,96505.17
2019-03-30T14:02:25.347Z,96502.45
2019-03-30T14:04:57.103Z,96498.80
2019-03-30T14:07:34.409Z,96492.00
2019-03-30T14:10:06.293Z,96488.85
2019-03-30T14:12:39.221Z,96493.23
2019-03-30T14:15:16.647Z,96490.56
2019-03-30T14:17:48.013Z,96481.63
2019-03-30T14:20:19.383Z,96485.08
2019-03-30T14:22:51.147Z,96474.55
2019-03-30T14:25:23.089Z,96479.37
2019-03-30T14:28:03.581Z,96475.19
2019-03-30T14:30:36.792Z,96470.34
2019-03-30T14:33:08.554Z,96469.12
2019-03-30T14:35:44.580Z,96468.00
2019-03-30T14:38:16.212Z,96465.97
2019-03-30T14:40:58.595Z,96457.48
2019-03-30T14:43:34.866Z,96458.97
2019-03-30T14:46:10.510Z,96461.85
2019-03-30T14:48:43.528Z,96456.99
2019-03-30T14:51:19.451Z,96452.02
2019-03-30T14:53:51.223Z,96443.84
2019-03-30T14:56:27.482Z,96440.39
2019-03-30T14:59:41.098Z,96442.17
2019-03-30T15:02:13.122Z,96437.02
2019-03-30T15:04:45.314Z,96428.69
2019-03-30T15:07:20.594Z,96426.98
2019-03-30T15:09:51.899Z,96422.86
2019-03-30T15:12:23.756Z,96425.08
2019-03-30T15:14:55.130Z,96424.22
2019-03-30T15:17:26.851Z,96418.91
2019-03-30T15:20:02.463Z,96422.44
2019-03-30T15:22:42.097Z,96425.08
2019-03-30T15:25:17.811Z,96418.52
2019-03-30T15:27:54.102Z,96415.08
2019-03-30T15:30:25.706Z,96417.06
2019-03-30T15:32:57.344Z,96424.55
2019-03-30T15:35:30.460Z,96421.96
2019-03-30T15:38:04.697Z,96412.85
2019-03-30T15:40:46.085Z,96411.33
2019-03-30T15:43:18.651Z,96409.54
2019-03-30T15:45:57.145Z,96409.70
2019-03-30T15:48:28.610Z,96403.06
2019-03-30T15:50:59.968Z,96395.89
2019-03-30T15:53:31.319Z,96400.80
2019-03-30T15:56:17.319Z,96395.03
2019-03-30T15:58:49.080Z,96391.66
2019-03-30T16:01:20.428Z,96388.80
2019-03-30T16:03:52.055Z,96387.36
2019-03-30T16:06:26.463Z,96389.90
2019-03-30T16:08:57.846Z,96395.99
2019-03-30T16:11:29.695Z,96395.55
2019-03-30T16:14:01.333Z,96390.64
2019-03-30T16:17:15.034Z,96396.12
2019-03-30T16:20:22.597Z,96392.70
2019-03-30T16:23:03.418Z,96389.68
2019-03-30T16:26:18.623Z,96389.84
2019-03-30T16:29:39.019Z,96394.23
2019-03-30T16:32:18.157Z,96383.63
2019-03-30T16:37:32.077Z,96389.19
2019-03-30T16:40:04.843Z,96386.02
2019-03-30T16:42:37.953Z,96380.92
2019-03-30T16:45:12.315Z,96381.73
2019-03-30T16:47:43.705Z,96378.27
2019-03-30T16:50:15.533Z,96378.27
2019-03-30T16:52:58.072Z,96378.27
2019-03-30T16:55:30.343Z,96379.87
2019-03-30T16:58:04.799Z,96375.83
2019-03-30T17:00:55.334Z,96376.06
2019-03-30T17:03:16.774Z,96374.41
2019-03-30T17:05:56.024Z,96378.95
2019-03-30T17:08:31.522Z,96371.10
2019-03-30T17:11:03.106Z,96374.78
2019-03-30T17:13:34.474Z,96373.37
2019-03-30T17:16:06.527Z,96369.84
2019-03-30T17:18:38.205Z,96368.45
2019-03-30T17:21:38.338Z,96371.08
2019-03-30T17:24:16.205Z,96367.53
2019-03-30T17:26:53.273Z,96369.55
2019-03-30T17:29:27.856Z,96373.25
2019-03-30T17:33:01.039Z,96367.82
2019-03-30T17:39:08.390Z,96373.72
2019-03-30T17:41:41.887Z,96383.80
2019-03-30T17:44:13.412Z,96381.80
2019-03-30T17:46:46.373Z,96388.38
2019-03-30T17:49:17.971Z,96383.49
2019-03-30T17:51:49.769Z,96387.67
2019-03-30T17:54:23.568Z,96384.61
2019-03-30T17:56:55.384Z,96383.67
2019-03-30T17:59:33.319Z,96386.79
2019-03-30T18:02:09.204Z,96390.16
2019-03-30T18:04:55.553Z,96391.63
2019-03-30T18:07:27.497Z,96393.92
2019-03-30T18:09:59.289Z,96383.36
2019-03-30T18:12:36.837Z,96385.45
2019-03-30T18:15:10.674Z,96386.16
2019-03-30T18:17:42.069Z,96391.88
2019-03-30T18:20:20.000Z,96392.12
2019-03-30T18:22:51.447Z,96387.25
2019-03-30T18:25:27.306Z,96399.64
2019-03-30T18:28:04.147Z,96397.33
2019-03-30T18:30:41.465Z,96394.78
2019-03-30T18:33:24.563Z,96399.67
2019-03-30T18:35:56.422Z,96400.38
2019-03-30T18:38:28.320Z,96399.73
2019-03-30T18:41:03.362Z,96402.85
2019-03-30T18:43:40.552Z,96407.52
2019-03-30T18:46:20.968Z,96406.88
2019-03-30T18:48:54.897Z,96413.44
2019-03-30T18:51:28.503Z,96417.22
2019-03-30T18:54:00.013Z,96419.25
2019-03-30T18:56:36.987Z,96411.87
2019-03-30T18:59:12.448Z,96417.15
2019-03-30T19:01:47.273Z,96418.45
2019-03-30T19:04:19.325Z,96419.44
2019-03-30T19:06:52.722Z,96417.77
2019-03-30T19:09:26.214Z,96416.17
2019-03-30T19:11:57.987Z,96419.91
2019-03-30T19:14:34.791Z,96423.47
2019-03-30T19:17:10.754Z,96422.62
2019-03-30T19:19:50.219Z,96421.64
2019-03-30T19:22:25.252Z,96421.09
2019-03-30T19:24:56.599Z,96426.59
2019-03-30T19:27:30.234Z,96428.34
2019-03-30T19:30:02.009Z,96431.61
2019-03-30T19:32:39.798Z,96424.96
2019-03-30T19:35:14.616Z,96416.84
2019-03-30T19:37:47.543Z,96419.94
2019-03-30T19:40:23.619Z,96422.14
2019-03-30T19:42:57.741Z,96414.55
2019-03-30T19:45:39.440Z,96421.39
2019-03-30T19:48:15.865Z,96427.88
2019-03-30T19:50:47.829Z,96415.70
2019-03-30T19:53:19.511Z,96422.25
2019-03-30T19:55:52.156Z,96420.00
2019-03-30T19:58:30.912Z,96419.64
2019-03-30T20:01:02.390Z,96417.63
2019-03-30T20:03:40.313Z,96419.33
2019-03-30T20:06:16.963Z,96419.84
2019-03-30T20:08:48.462Z,96420.88
2019-03-30T20:11:24.243Z,96423.43
2019-03-30T20:13:58.632Z,96416.60
2019-03-30T20:16:33.174Z,96412.55
2019-03-30T20:19:11.894Z,96419.12
2019-03-30T20:21:38.922Z,96412.81
2019-03-30T20:24:10.552Z,96414.66
2019-03-30T20:26:42.179Z,96410.78
2019-03-30T20:29:25.094Z,96410.19
2019-03-30T20:31:48.182Z,96412.77
2019-03-30T20:34:19.582Z,96410.73
2019-03-30T20:36:51.623Z,96413.09
2019-03-30T20:39:35.756Z,96405.83
2019-03-30T20:42:07.233Z,96409.36
2019-03-30T20:44:42.877Z,96406.00
2019-03-30T20:47:14.587Z,96412.48
2019-03-30T20:49:46.583Z,96405.41
2019-03-30T20:52:24.414Z,96400.09
2019-03-30T20:54:55.765Z,96403.97
2019-03-30T20:57:28.038Z,96410.34
2019-03-30T21:00:00.758Z,96402.59
2019-03-30T21:02:33.853Z,96400.89
2019-03-30T21:05:07.331Z,96403.99
2019-03-30T21:07:41.719Z,96396.84
2019-03-30T21:10:15.586Z,96399.67
2019-03-30T21:12:54.648Z,96398.41
2019-03-30T21:15:26.213Z,96400.55
2019-03-30T21:18:01.601Z,96400.50
2019-03-30T21:20:33.605Z,96401.16
2019-03-30T21:23:16.939Z,96401.03
2019-03-30T21:25:59.135Z,96398.81
2019-03-30T21:28:30.842Z,96396.03
2019-03-30T21:31:04.037Z,96394.63
2019-03-30T21:33:35.297Z,96394.92
2019-03-30T21:36:16.925Z,96396.01
2019-03-30T21:38:48.173Z,96395.36
2019-03-30T21:41:19.881Z,96395.49
2019-03-30T21:43:51.278Z,96402.42
2019-03-30T21:46:22.504Z,96400.08
2019-03-30T21:48:53.857Z,96395.80
2019-03-30T21:51:25.139Z,96398.40
2019-03-30T21:53:57.104Z,96395.45
2019-03-30T21:56:28.821Z,96400.52
2019-03-30T21:59:00.516Z,96407.30
2019-03-30T22:01:34.805Z,96401.33
2019-03-30T22:04:07.240Z,96394.13
2019-03-30T22:06:40.167Z,96391.69
2019-03-30T22:09:19.046Z,96395.16
2019-03-30T22:11:51.331Z,96396.10
2019-03-30T22:14:22.525Z,96390.71
2019-03-30T22:16:53.660Z,96393.66
2019-03-30T22:19:24.910Z,96394.13
2019-03-30T22:22:09.937Z,96395.28
2019-03-30T22:24:43.435Z,96395.72
2019-03-30T22:27:14.621Z,96395.66
2019-03-30T22:29:55.934Z,96392.84
2019-03-30T22:32:27.587Z,96391.02
2019-03-30T22:34:59.219Z,96391.22
2019-03-30T22:37:30.534Z,96388.22
2019-03-30T22:40:02.424Z,96387.45
2019-03-30T22:42:39.299Z,96386.08
2019-03-30T22:45:16.496Z,96382.31
2019-03-30T22:48:15.869Z,96383.05
2019-03-30T22:50:58.258Z,96383.26
2019-03-30T22:53:38.005Z,96381.80
2019-03-30T22:56:09.380Z,96381.80
2019-03-30T22:58:41.379Z,96378.11
2019-03-30T23:01:15.982Z,96376.39
2019-03-30T23:03:49.044Z,96379.05
2019-03-30T23:06:22.403Z,96373.23
2019-03-30T23:08:53.805Z,96374.25
2019-03-30T23:11:26.232Z,96374.69
2019-03-30T23:13:57.347Z,96374.75
2019-03-30T23:16:34.657Z,96371.14
2019-03-30T23:19:08.111Z,96373.70
2019-03-30T23:21:54.937Z,96368.62
2019-03-30T23:24:26.434Z,96366.70
2019-03-30T23:26:59.723Z,96368.53
2019-03-30T23:29:33.743Z,96369.56
2019-03-30T23:32:08.464Z,96367.06
2019-03-30T23:35:19.865Z,96368.72
2019-03-30T23:37:58.804Z,96373.59
2019-03-30T23:40:48.362Z,96373.90
2019-03-30T23:43:21.608Z,96368.30
2019-03-30T23:45:58.906Z,96368.69
2019-03-30T23:48:35.694Z,96361.77
2019-03-30T23:51:06.883Z,96357.91
2019-03-30T23:53:39.849Z,96360.05
2019-03-30T23:56:24.167Z,96358.22
2019-03-30T23:58:59.387Z,96361.74
